sensor_id;sensor_type;location;lat;lon;timestamp;P1;durP1;ratioP1;P2;durP2;ratioP2
34896;SDS011;43407;51.828;-2.298;2023-12-20T00:00:39;6.63;;;1.73;;
34896;SDS011;43407;51.828;-2.298;2023-12-20T00:03:05;6.25;;;1.73;;
34896;SDS011;43407;51.828;-2.298;2023-12-20T00:05:30;7.57;;;1.73;;
34896;SDS011;43407;51.828;-2.298;2023-12-20T00:07:59;7.30;;;1.98;;
34896;SDS011;43407;51.828;-2.298;2023-12-20T00:10:25;4.95;;;1.88;;
34896;SDS011;43407;51.828;-2.298;2023-12-20T00:12:50;5.65;;;1.50;;
34896;SDS011;43407;51.828;-2.298;2023-12-20T00:15:16;7.80;;;1.70;;
34896;SDS011;43407;51.828;-2.298;2023-12-20T00:17:41;7.28;;;2.10;;
34896;SDS011;43407;51.828;-2.298;2023-12-20T00:20:07;7.72;;;1.50;;
34896;SDS011;43407;51.828;-2.298;2023-12-20T00:22:33;9.25;;;1.70;;
34896;SDS011;43407;51.828;-2.298;2023-12-20T00:24:58;6.55;;;1.98;;
34896;SDS011;43407;51.828;-2.298;2023-12-20T00:27:24;3.40;;;1.45;;
34896;SDS011;43407;51.828;-2.298;2023-12-20T00:29:49;5.30;;;1.55;;
34896;SDS011;43407;51.828;-2.298;2023-12-20T00:32:15;6.25;;;1.45;;
34896;SDS011;43407;51.828;-2.298;2023-12-20T00:34:42;6.82;;;1.60;;
34896;SDS011;43407;51.828;-2.298;2023-12-20T00:37:07;8.57;;;1.80;;
34896;SDS011;43407;51.828;-2.298;2023-12-20T00:39:33;9.77;;;1.90;;
34896;SDS011;43407;51.828;-2.298;2023-12-20T00:41:58;4.53;;;1.70;;
34896;SDS011;43407;51.828;-2.298;2023-12-20T00:44:24;7.28;;;1.70;;
34896;SDS011;43407;51.828;-2.298;2023-12-20T00:46:49;3.90;;;1.80;;
34896;SDS011;43407;51.828;-2.298;2023-12-20T00:49:15;7.25;;;1.70;;
34896;SDS011;43407;51.828;-2.298;2023-12-20T00:51:40;7.68;;;2.00;;
34896;SDS011;43407;51.828;-2.298;2023-12-20T00:54:06;6.63;;;2.20;;
34896;SDS011;43407;51.828;-2.298;2023-12-20T00:56:31;11.70;;;2.30;;
34896;SDS011;43407;51.828;-2.298;2023-12-20T00:58:57;6.68;;;1.80;;
34896;SDS011;43407;51.828;-2.298;2023-12-20T01:01:22;6.53;;;1.90;;
34896;SDS011;43407;51.828;-2.298;2023-12-20T01:03:47;7.97;;;1.67;;
34896;SDS011;43407;51.828;-2.298;2023-12-20T01:06:16;22.75;;;2.28;;
34896;SDS011;43407;51.828;-2.298;2023-12-20T01:08:41;9.60;;;2.88;;
34896;SDS011;43407;51.828;-2.298;2023-12-20T01:11:07;14.57;;;2.17;;
34896;SDS011;43407;51.828;-2.298;2023-12-20T01:13:32;5.55;;;2.10;;
34896;SDS011;43407;51.828;-2.298;2023-12-20T01:15:58;8.43;;;1.90;;
34896;SDS011;43407;51.828;-2.298;2023-12-20T01:18:24;9.70;;;1.80;;
34896;SDS011;43407;51.828;-2.298;2023-12-20T01:20:49;8.00;;;1.63;;
34896;SDS011;43407;51.828;-2.298;2023-12-20T01:23:15;8.95;;;2.00;;
34896;SDS011;43407;51.828;-2.298;2023-12-20T01:25:40;12.07;;;3.00;;
34896;SDS011;43407;51.828;-2.298;2023-12-20T01:28:06;8.20;;;2.20;;
34896;SDS011;43407;51.828;-2.298;2023-12-20T01:30:31;7.45;;;1.90;;
34896;SDS011;43407;51.828;-2.298;2023-12-20T01:32:57;7.63;;;1.75;;
34896;SDS011;43407;51.828;-2.298;2023-12-20T01:35:23;9.10;;;1.85;;
34896;SDS011;43407;51.828;-2.298;2023-12-20T01:37:48;7.38;;;1.55;;
34896;SDS011;43407;51.828;-2.298;2023-12-20T01:40:14;6.82;;;1.95;;
34896;SDS011;43407;51.828;-2.298;2023-12-20T01:42:39;6.53;;;2.20;;
34896;SDS011;43407;51.828;-2.298;2023-12-20T01:45:05;10.35;;;2.00;;
34896;SDS011;43407;51.828;-2.298;2023-12-20T01:47:31;4.07;;;1.75;;
34896;SDS011;43407;51.828;-2.298;2023-12-20T01:49:56;5.57;;;1.70;;
34896;SDS011;43407;51.828;-2.298;2023-12-20T01:52:22;7.30;;;1.80;;
34896;SDS011;43407;51.828;-2.298;2023-12-20T01:54:48;6.35;;;1.65;;
34896;SDS011;43407;51.828;-2.298;2023-12-20T01:57:13;10.68;;;1.75;;
34896;SDS011;43407;51.828;-2.298;2023-12-20T01:59:39;13.32;;;2.53;;
34896;SDS011;43407;51.828;-2.298;2023-12-20T02:02:05;8.65;;;2.17;;
34896;SDS011;43407;51.828;-2.298;2023-12-20T02:04:32;7.80;;;1.85;;
34896;SDS011;43407;51.828;-2.298;2023-12-20T02:06:57;7.38;;;2.40;;
34896;SDS011;43407;51.828;-2.298;2023-12-20T02:09:24;12.70;;;2.28;;
34896;SDS011;43407;51.828;-2.298;2023-12-20T02:11:49;12.38;;;2.15;;
34896;SDS011;43407;51.828;-2.298;2023-12-20T02:14:15;8.60;;;1.95;;
34896;SDS011;43407;51.828;-2.298;2023-12-20T02:16:40;7.10;;;1.98;;
34896;SDS011;43407;51.828;-2.298;2023-12-20T02:19:07;6.65;;;1.88;;
34896;SDS011;43407;51.828;-2.298;2023-12-20T02:21:40;9.43;;;2.25;;
34896;SDS011;43407;51.828;-2.298;2023-12-20T02:24:05;11.23;;;1.83;;
34896;SDS011;43407;51.828;-2.298;2023-12-20T02:26:34;11.30;;;2.33;;
34896;SDS011;43407;51.828;-2.298;2023-12-20T02:28:59;8.10;;;1.90;;
34896;SDS011;43407;51.828;-2.298;2023-12-20T02:31:25;8.43;;;2.22;;
34896;SDS011;43407;51.828;-2.298;2023-12-20T02:33:51;9.38;;;2.17;;
34896;SDS011;43407;51.828;-2.298;2023-12-20T02:36:16;6.00;;;1.75;;
34896;SDS011;43407;51.828;-2.298;2023-12-20T02:38:42;8.93;;;2.08;;
34896;SDS011;43407;51.828;-2.298;2023-12-20T02:41:07;11.60;;;2.15;;
34896;SDS011;43407;51.828;-2.298;2023-12-20T02:43:33;10.60;;;2.05;;
34896;SDS011;43407;51.828;-2.298;2023-12-20T02:45:58;5.38;;;1.88;;
34896;SDS011;43407;51.828;-2.298;2023-12-20T02:48:24;8.85;;;1.80;;
34896;SDS011;43407;51.828;-2.298;2023-12-20T02:50:49;10.15;;;2.60;;
34896;SDS011;43407;51.828;-2.298;2023-12-20T02:53:15;8.73;;;2.05;;
34896;SDS011;43407;51.828;-2.298;2023-12-20T02:55:40;11.80;;;2.50;;
34896;SDS011;43407;51.828;-2.298;2023-12-20T02:58:06;9.40;;;2.40;;
34896;SDS011;43407;51.828;-2.298;2023-12-20T03:00:31;10.05;;;2.35;;
34896;SDS011;43407;51.828;-2.298;2023-12-20T03:02:57;13.02;;;2.63;;
34896;SDS011;43407;51.828;-2.298;2023-12-20T03:05:24;10.00;;;2.13;;
34896;SDS011;43407;51.828;-2.298;2023-12-20T03:07:50;8.82;;;2.05;;
34896;SDS011;43407;51.828;-2.298;2023-12-20T03:10:15;8.95;;;2.40;;
34896;SDS011;43407;51.828;-2.298;2023-12-20T03:12:41;12.20;;;2.58;;
34896;SDS011;43407;51.828;-2.298;2023-12-20T03:15:06;9.43;;;2.13;;
34896;SDS011;43407;51.828;-2.298;2023-12-20T03:17:32;5.80;;;1.80;;
34896;SDS011;43407;51.828;-2.298;2023-12-20T03:19:57;15.05;;;2.42;;
34896;SDS011;43407;51.828;-2.298;2023-12-20T03:22:23;7.05;;;1.85;;
34896;SDS011;43407;51.828;-2.298;2023-12-20T03:24:48;8.70;;;2.25;;
34896;SDS011;43407;51.828;-2.298;2023-12-20T03:27:14;10.52;;;2.30;;
34896;SDS011;43407;51.828;-2.298;2023-12-20T03:29:39;8.52;;;2.17;;
34896;SDS011;43407;51.828;-2.298;2023-12-20T03:32:05;8.25;;;2.00;;
34896;SDS011;43407;51.828;-2.298;2023-12-20T03:34:30;12.85;;;2.42;;
34896;SDS011;43407;51.828;-2.298;2023-12-20T03:36:56;12.40;;;2.15;;
34896;SDS011;43407;51.828;-2.298;2023-12-20T03:39:21;9.73;;;2.33;;
34896;SDS011;43407;51.828;-2.298;2023-12-20T03:41:47;9.32;;;1.90;;
34896;SDS011;43407;51.828;-2.298;2023-12-20T03:44:12;7.05;;;1.95;;
34896;SDS011;43407;51.828;-2.298;2023-12-20T03:46:38;14.70;;;2.00;;
34896;SDS011;43407;51.828;-2.298;2023-12-20T03:49:03;7.65;;;1.92;;
34896;SDS011;43407;51.828;-2.298;2023-12-20T03:51:29;7.95;;;2.10;;
34896;SDS011;43407;51.828;-2.298;2023-12-20T03:53:54;15.50;;;2.28;;
34896;SDS011;43407;51.828;-2.298;2023-12-20T03:56:20;9.82;;;2.17;;
34896;SDS011;43407;51.828;-2.298;2023-12-20T03:58:45;7.72;;;2.25;;
34896;SDS011;43407;51.828;-2.298;2023-12-20T04:01:11;8.77;;;2.10;;
34896;SDS011;43407;51.828;-2.298;2023-12-20T04:03:39;9.95;;;2.45;;
34896;SDS011;43407;51.828;-2.298;2023-12-20T04:06:05;10.60;;;2.45;;
34896;SDS011;43407;51.828;-2.298;2023-12-20T04:08:31;7.07;;;1.83;;
34896;SDS011;43407;51.828;-2.298;2023-12-20T04:10:56;13.63;;;2.65;;
34896;SDS011;43407;51.828;-2.298;2023-12-20T04:13:22;13.40;;;2.20;;
34896;SDS011;43407;51.828;-2.298;2023-12-20T04:15:47;12.40;;;2.35;;
34896;SDS011;43407;51.828;-2.298;2023-12-20T04:18:15;15.80;;;2.60;;
34896;SDS011;43407;51.828;-2.298;2023-12-20T04:20:40;13.15;;;2.30;;
34896;SDS011;43407;51.828;-2.298;2023-12-20T04:23:06;10.98;;;2.05;;
34896;SDS011;43407;51.828;-2.298;2023-12-20T04:25:31;8.40;;;2.08;;
34896;SDS011;43407;51.828;-2.298;2023-12-20T04:27:57;9.13;;;2.22;;
34896;SDS011;43407;51.828;-2.298;2023-12-20T04:30:22;9.13;;;2.05;;
34896;SDS011;43407;51.828;-2.298;2023-12-20T04:32:48;10.00;;;2.30;;
34896;SDS011;43407;51.828;-2.298;2023-12-20T04:35:13;10.45;;;2.47;;
34896;SDS011;43407;51.828;-2.298;2023-12-20T04:37:39;7.47;;;2.50;;
34896;SDS011;43407;51.828;-2.298;2023-12-20T04:40:04;10.32;;;2.85;;
34896;SDS011;43407;51.828;-2.298;2023-12-20T04:42:30;10.20;;;2.30;;
34896;SDS011;43407;51.828;-2.298;2023-12-20T04:44:56;9.88;;;2.95;;
34896;SDS011;43407;51.828;-2.298;2023-12-20T04:47:21;11.68;;;2.40;;
34896;SDS011;43407;51.828;-2.298;2023-12-20T04:49:47;7.82;;;1.77;;
34896;SDS011;43407;51.828;-2.298;2023-12-20T04:52:13;11.18;;;2.50;;
34896;SDS011;43407;51.828;-2.298;2023-12-20T04:54:39;11.45;;;2.58;;
34896;SDS011;43407;51.828;-2.298;2023-12-20T04:57:05;8.80;;;2.45;;
34896;SDS011;43407;51.828;-2.298;2023-12-20T04:59:30;11.38;;;3.10;;
34896;SDS011;43407;51.828;-2.298;2023-12-20T05:01:56;11.40;;;2.42;;
34896;SDS011;43407;51.828;-2.298;2023-12-20T05:04:22;8.73;;;2.00;;
34896;SDS011;43407;51.828;-2.298;2023-12-20T05:06:48;9.27;;;1.92;;
34896;SDS011;43407;51.828;-2.298;2023-12-20T05:09:15;8.90;;;2.30;;
34896;SDS011;43407;51.828;-2.298;2023-12-20T05:11:40;7.85;;;2.10;;
34896;SDS011;43407;51.828;-2.298;2023-12-20T05:14:06;9.80;;;2.13;;
34896;SDS011;43407;51.828;-2.298;2023-12-20T05:16:32;9.90;;;2.25;;
34896;SDS011;43407;51.828;-2.298;2023-12-20T05:18:57;7.20;;;1.98;;
34896;SDS011;43407;51.828;-2.298;2023-12-20T05:21:25;7.45;;;1.77;;
34896;SDS011;43407;51.828;-2.298;2023-12-20T05:23:51;8.60;;;2.20;;
34896;SDS011;43407;51.828;-2.298;2023-12-20T05:26:17;9.57;;;2.00;;
34896;SDS011;43407;51.828;-2.298;2023-12-20T05:28:42;8.40;;;1.98;;
34896;SDS011;43407;51.828;-2.298;2023-12-20T05:31:08;11.63;;;2.25;;
34896;SDS011;43407;51.828;-2.298;2023-12-20T05:33:34;6.57;;;2.30;;
34896;SDS011;43407;51.828;-2.298;2023-12-20T05:35:59;8.20;;;2.35;;
34896;SDS011;43407;51.828;-2.298;2023-12-20T05:38:25;7.85;;;2.35;;
34896;SDS011;43407;51.828;-2.298;2023-12-20T05:40:51;11.30;;;2.58;;
34896;SDS011;43407;51.828;-2.298;2023-12-20T05:43:16;9.93;;;2.00;;
34896;SDS011;43407;51.828;-2.298;2023-12-20T05:45:42;8.40;;;1.83;;
34896;SDS011;43407;51.828;-2.298;2023-12-20T05:48:07;3.08;;;1.52;;
34896;SDS011;43407;51.828;-2.298;2023-12-20T05:50:33;6.80;;;2.10;;
34896;SDS011;43407;51.828;-2.298;2023-12-20T05:53:00;9.95;;;2.70;;
34896;SDS011;43407;51.828;-2.298;2023-12-20T05:55:25;8.55;;;2.10;;
34896;SDS011;43407;51.828;-2.298;2023-12-20T05:57:51;7.95;;;2.05;;
34896;SDS011;43407;51.828;-2.298;2023-12-20T06:00:16;8.23;;;2.10;;
34896;SDS011;43407;51.828;-2.298;2023-12-20T06:02:42;9.50;;;1.85;;
34896;SDS011;43407;51.828;-2.298;2023-12-20T06:05:08;6.68;;;1.92;;
34896;SDS011;43407;51.828;-2.298;2023-12-20T06:07:34;12.05;;;2.45;;
34896;SDS011;43407;51.828;-2.298;2023-12-20T06:09:59;9.20;;;1.95;;
34896;SDS011;43407;51.828;-2.298;2023-12-20T06:12:25;8.65;;;1.42;;
34896;SDS011;43407;51.828;-2.298;2023-12-20T06:14:52;9.10;;;1.85;;
34896;SDS011;43407;51.828;-2.298;2023-12-20T06:17:18;7.97;;;2.13;;
34896;SDS011;43407;51.828;-2.298;2023-12-20T06:19:43;6.70;;;2.05;;
34896;SDS011;43407;51.828;-2.298;2023-12-20T06:22:10;7.97;;;1.83;;
34896;SDS011;43407;51.828;-2.298;2023-12-20T06:24:36;10.75;;;1.65;;
34896;SDS011;43407;51.828;-2.298;2023-12-20T06:27:01;5.22;;;1.77;;
34896;SDS011;43407;51.828;-2.298;2023-12-20T06:29:27;6.88;;;1.77;;
34896;SDS011;43407;51.828;-2.298;2023-12-20T06:31:53;7.63;;;1.88;;
34896;SDS011;43407;51.828;-2.298;2023-12-20T06:34:18;6.05;;;1.63;;
34896;SDS011;43407;51.828;-2.298;2023-12-20T06:36:44;10.63;;;1.60;;
34896;SDS011;43407;51.828;-2.298;2023-12-20T06:39:09;9.02;;;1.98;;
34896;SDS011;43407;51.828;-2.298;2023-12-20T06:41:37;8.55;;;1.80;;
34896;SDS011;43407;51.828;-2.298;2023-12-20T06:44:03;10.50;;;1.88;;
34896;SDS011;43407;51.828;-2.298;2023-12-20T06:46:29;9.07;;;1.85;;
34896;SDS011;43407;51.828;-2.298;2023-12-20T06:48:54;4.70;;;1.52;;
34896;SDS011;43407;51.828;-2.298;2023-12-20T06:51:19;6.10;;;1.48;;
34896;SDS011;43407;51.828;-2.298;2023-12-20T06:53:45;7.50;;;2.15;;
34896;SDS011;43407;51.828;-2.298;2023-12-20T06:56:11;6.40;;;1.90;;
34896;SDS011;43407;51.828;-2.298;2023-12-20T06:58:40;8.68;;;2.20;;
34896;SDS011;43407;51.828;-2.298;2023-12-20T07:01:05;7.45;;;1.67;;
34896;SDS011;43407;51.828;-2.298;2023-12-20T07:03:30;6.03;;;1.58;;
34896;SDS011;43407;51.828;-2.298;2023-12-20T07:05:56;9.27;;;1.80;;
34896;SDS011;43407;51.828;-2.298;2023-12-20T07:08:21;6.43;;;1.70;;
34896;SDS011;43407;51.828;-2.298;2023-12-20T07:10:47;8.45;;;2.00;;
34896;SDS011;43407;51.828;-2.298;2023-12-20T07:13:13;7.88;;;2.10;;
34896;SDS011;43407;51.828;-2.298;2023-12-20T07:15:39;8.25;;;1.65;;
34896;SDS011;43407;51.828;-2.298;2023-12-20T07:18:04;11.13;;;1.85;;
34896;SDS011;43407;51.828;-2.298;2023-12-20T07:20:31;8.45;;;1.98;;
34896;SDS011;43407;51.828;-2.298;2023-12-20T07:22:57;7.15;;;2.00;;
34896;SDS011;43407;51.828;-2.298;2023-12-20T07:25:22;9.35;;;2.15;;
34896;SDS011;43407;51.828;-2.298;2023-12-20T07:27:48;6.72;;;1.40;;
34896;SDS011;43407;51.828;-2.298;2023-12-20T07:30:13;6.63;;;1.73;;
34896;SDS011;43407;51.828;-2.298;2023-12-20T07:32:39;5.60;;;1.67;;
34896;SDS011;43407;51.828;-2.298;2023-12-20T07:35:04;15.05;;;2.75;;
34896;SDS011;43407;51.828;-2.298;2023-12-20T07:37:30;9.45;;;2.05;;
34896;SDS011;43407;51.828;-2.298;2023-12-20T07:39:56;4.10;;;1.80;;
34896;SDS011;43407;51.828;-2.298;2023-12-20T07:42:21;4.85;;;1.50;;
34896;SDS011;43407;51.828;-2.298;2023-12-20T07:44:47;8.05;;;1.52;;
34896;SDS011;43407;51.828;-2.298;2023-12-20T07:47:13;5.45;;;1.67;;
34896;SDS011;43407;51.828;-2.298;2023-12-20T07:49:42;6.80;;;2.00;;
34896;SDS011;43407;51.828;-2.298;2023-12-20T07:52:07;4.80;;;1.42;;
34896;SDS011;43407;51.828;-2.298;2023-12-20T07:54:33;5.15;;;1.33;;
34896;SDS011;43407;51.828;-2.298;2023-12-20T07:56:58;6.80;;;1.67;;
34896;SDS011;43407;51.828;-2.298;2023-12-20T07:59:24;5.45;;;1.48;;
34896;SDS011;43407;51.828;-2.298;2023-12-20T08:01:49;8.25;;;1.90;;
34896;SDS011;43407;51.828;-2.298;2023-12-20T08:04:15;7.65;;;1.77;;
34896;SDS011;43407;51.828;-2.298;2023-12-20T08:06:40;3.95;;;1.38;;
34896;SDS011;43407;51.828;-2.298;2023-12-20T08:09:06;6.32;;;1.67;;
34896;SDS011;43407;51.828;-2.298;2023-12-20T08:11:31;6.90;;;1.63;;
34896;SDS011;43407;51.828;-2.298;2023-12-20T08:13:57;6.22;;;2.08;;
34896;SDS011;43407;51.828;-2.298;2023-12-20T08:16:23;8.73;;;2.05;;
34896;SDS011;43407;51.828;-2.298;2023-12-20T08:18:50;7.32;;;2.63;;
34896;SDS011;43407;51.828;-2.298;2023-12-20T08:21:15;5.47;;;1.90;;
34896;SDS011;43407;51.828;-2.298;2023-12-20T08:23:41;7.10;;;2.20;;
34896;SDS011;43407;51.828;-2.298;2023-12-20T08:26:07;10.27;;;1.98;;
34896;SDS011;43407;51.828;-2.298;2023-12-20T08:28:33;6.25;;;1.83;;
34896;SDS011;43407;51.828;-2.298;2023-12-20T08:30:59;6.18;;;1.73;;
34896;SDS011;43407;51.828;-2.298;2023-12-20T08:33:25;8.23;;;1.98;;
34896;SDS011;43407;51.828;-2.298;2023-12-20T08:35:51;9.40;;;1.88;;
34896;SDS011;43407;51.828;-2.298;2023-12-20T08:38:16;6.95;;;2.08;;
34896;SDS011;43407;51.828;-2.298;2023-12-20T08:40:42;8.23;;;1.98;;
34896;SDS011;43407;51.828;-2.298;2023-12-20T08:43:08;9.65;;;2.30;;
34896;SDS011;43407;51.828;-2.298;2023-12-20T08:45:34;11.38;;;2.00;;
34896;SDS011;43407;51.828;-2.298;2023-12-20T08:47:59;7.97;;;1.65;;
34896;SDS011;43407;51.828;-2.298;2023-12-20T08:50:25;9.60;;;1.98;;
34896;SDS011;43407;51.828;-2.298;2023-12-20T08:52:50;7.25;;;1.70;;
34896;SDS011;43407;51.828;-2.298;2023-12-20T08:55:16;7.57;;;2.08;;
34896;SDS011;43407;51.828;-2.298;2023-12-20T08:57:43;6.40;;;1.95;;
34896;SDS011;43407;51.828;-2.298;2023-12-20T09:00:09;8.00;;;2.05;;
34896;SDS011;43407;51.828;-2.298;2023-12-20T09:02:35;6.60;;;1.48;;
34896;SDS011;43407;51.828;-2.298;2023-12-20T09:05:01;6.03;;;1.65;;
34896;SDS011;43407;51.828;-2.298;2023-12-20T09:07:27;8.85;;;1.90;;
34896;SDS011;43407;51.828;-2.298;2023-12-20T09:09:55;6.15;;;1.95;;
34896;SDS011;43407;51.828;-2.298;2023-12-20T09:12:21;8.77;;;1.70;;
34896;SDS011;43407;51.828;-2.298;2023-12-20T09:14:49;6.50;;;2.05;;
34896;SDS011;43407;51.828;-2.298;2023-12-20T09:17:17;6.82;;;1.50;;
34896;SDS011;43407;51.828;-2.298;2023-12-20T09:19:44;4.18;;;1.48;;
34896;SDS011;43407;51.828;-2.298;2023-12-20T09:22:09;6.22;;;1.67;;
34896;SDS011;43407;51.828;-2.298;2023-12-20T09:24:35;6.78;;;1.73;;
34896;SDS011;43407;51.828;-2.298;2023-12-20T09:27:01;5.22;;;1.33;;
34896;SDS011;43407;51.828;-2.298;2023-12-20T09:29:26;4.18;;;1.60;;
34896;SDS011;43407;51.828;-2.298;2023-12-20T09:31:52;6.43;;;1.45;;
34896;SDS011;43407;51.828;-2.298;2023-12-20T09:34:17;6.35;;;1.80;;
34896;SDS011;43407;51.828;-2.298;2023-12-20T09:36:43;9.95;;;1.77;;
34896;SDS011;43407;51.828;-2.298;2023-12-20T09:39:15;8.45;;;1.63;;
34896;SDS011;43407;51.828;-2.298;2023-12-20T09:41:45;8.35;;;1.83;;
34896;SDS011;43407;51.828;-2.298;2023-12-20T09:44:15;6.50;;;1.73;;
34896;SDS011;43407;51.828;-2.298;2023-12-20T09:46:44;6.88;;;1.88;;
34896;SDS011;43407;51.828;-2.298;2023-12-20T09:49:11;5.03;;;1.48;;
34896;SDS011;43407;51.828;-2.298;2023-12-20T09:51:36;6.57;;;1.70;;
34896;SDS011;43407;51.828;-2.298;2023-12-20T09:54:03;7.90;;;1.55;;
34896;SDS011;43407;51.828;-2.298;2023-12-20T09:56:29;5.05;;;1.70;;
34896;SDS011;43407;51.828;-2.298;2023-12-20T09:58:55;6.07;;;1.77;;
34896;SDS011;43407;51.828;-2.298;2023-12-20T10:01:20;8.75;;;1.50;;
34896;SDS011;43407;51.828;-2.298;2023-12-20T10:03:46;3.83;;;1.38;;
34896;SDS011;43407;51.828;-2.298;2023-12-20T10:06:12;5.60;;;1.50;;
34896;SDS011;43407;51.828;-2.298;2023-12-20T10:08:38;3.58;;;1.08;;
34896;SDS011;43407;51.828;-2.298;2023-12-20T10:11:04;2.28;;;1.25;;
34896;SDS011;43407;51.828;-2.298;2023-12-20T10:13:30;4.80;;;1.23;;
34896;SDS011;43407;51.828;-2.298;2023-12-20T10:15:55;3.80;;;0.95;;
34896;SDS011;43407;51.828;-2.298;2023-12-20T10:18:22;1.38;;;0.77;;
34896;SDS011;43407;51.828;-2.298;2023-12-20T10:20:48;2.95;;;0.63;;
34896;SDS011;43407;51.828;-2.298;2023-12-20T10:23:13;3.03;;;0.98;;
34896;SDS011;43407;51.828;-2.298;2023-12-20T10:25:40;3.00;;;1.17;;
34896;SDS011;43407;51.828;-2.298;2023-12-20T10:28:10;4.63;;;1.27;;
34896;SDS011;43407;51.828;-2.298;2023-12-20T10:30:43;3.92;;;1.23;;
34896;SDS011;43407;51.828;-2.298;2023-12-20T10:33:09;4.00;;;1.10;;
34896;SDS011;43407;51.828;-2.298;2023-12-20T10:35:35;2.55;;;1.13;;
34896;SDS011;43407;51.828;-2.298;2023-12-20T10:38:05;3.33;;;1.10;;
34896;SDS011;43407;51.828;-2.298;2023-12-20T10:40:35;5.03;;;1.20;;
34896;SDS011;43407;51.828;-2.298;2023-12-20T10:43:02;2.45;;;0.93;;
34896;SDS011;43407;51.828;-2.298;2023-12-20T10:45:28;4.22;;;1.20;;
34896;SDS011;43407;51.828;-2.298;2023-12-20T10:47:54;3.03;;;1.40;;
34896;SDS011;43407;51.828;-2.298;2023-12-20T10:50:19;2.92;;;1.00;;
34896;SDS011;43407;51.828;-2.298;2023-12-20T10:52:46;1.58;;;0.73;;
34896;SDS011;43407;51.828;-2.298;2023-12-20T10:55:12;1.95;;;0.73;;
34896;SDS011;43407;51.828;-2.298;2023-12-20T10:57:38;2.03;;;0.80;;
34896;SDS011;43407;51.828;-2.298;2023-12-20T11:00:06;4.03;;;1.00;;
34896;SDS011;43407;51.828;-2.298;2023-12-20T11:02:35;1.65;;;0.88;;
34896;SDS011;43407;51.828;-2.298;2023-12-20T11:08:17;3.83;;;1.10;;
34896;SDS011;43407;51.828;-2.298;2023-12-20T11:10:59;2.88;;;0.70;;
34896;SDS011;43407;51.828;-2.298;2023-12-20T11:13:32;4.35;;;1.08;;
34896;SDS011;43407;51.828;-2.298;2023-12-20T11:15:59;2.10;;;0.75;;
34896;SDS011;43407;51.828;-2.298;2023-12-20T11:18:31;1.58;;;0.95;;
34896;SDS011;43407;51.828;-2.298;2023-12-20T11:21:06;1.70;;;0.65;;
34896;SDS011;43407;51.828;-2.298;2023-12-20T11:23:32;1.27;;;0.70;;
34896;SDS011;43407;51.828;-2.298;2023-12-20T11:26:01;1.70;;;0.80;;
34896;SDS011;43407;51.828;-2.298;2023-12-20T11:28:27;3.38;;;0.75;;
34896;SDS011;43407;51.828;-2.298;2023-12-20T11:30:55;2.15;;;0.77;;
34896;SDS011;43407;51.828;-2.298;2023-12-20T11:33:29;1.33;;;0.70;;
34896;SDS011;43407;51.828;-2.298;2023-12-20T11:35:56;1.10;;;0.68;;
34896;SDS011;43407;51.828;-2.298;2023-12-20T11:38:22;2.47;;;0.70;;
34896;SDS011;43407;51.828;-2.298;2023-12-20T11:40:49;1.98;;;0.80;;
34896;SDS011;43407;51.828;-2.298;2023-12-20T11:43:31;2.13;;;0.80;;
34896;SDS011;43407;51.828;-2.298;2023-12-20T11:46:02;1.50;;;0.60;;
34896;SDS011;43407;51.828;-2.298;2023-12-20T11:48:31;2.03;;;0.70;;
34896;SDS011;43407;51.828;-2.298;2023-12-20T11:50:57;1.15;;;0.77;;
34896;SDS011;43407;51.828;-2.298;2023-12-20T11:53:23;1.73;;;0.82;;
34896;SDS011;43407;51.828;-2.298;2023-12-20T11:55:49;2.13;;;0.90;;
34896;SDS011;43407;51.828;-2.298;2023-12-20T11:58:14;2.05;;;0.82;;
34896;SDS011;43407;51.828;-2.298;2023-12-20T12:00:41;7.80;;;1.20;;
34896;SDS011;43407;51.828;-2.298;2023-12-20T12:03:08;3.30;;;1.15;;
34896;SDS011;43407;51.828;-2.298;2023-12-20T12:05:41;4.34;;;1.19;;
34896;SDS011;43407;51.828;-2.298;2023-12-20T12:08:07;5.93;;;1.10;;
34896;SDS011;43407;51.828;-2.298;2023-12-20T12:10:33;2.67;;;0.90;;
34896;SDS011;43407;51.828;-2.298;2023-12-20T12:12:58;0.85;;;0.75;;
34896;SDS011;43407;51.828;-2.298;2023-12-20T12:15:24;1.00;;;0.75;;
34896;SDS011;43407;51.828;-2.298;2023-12-20T12:17:53;2.67;;;0.60;;
34896;SDS011;43407;51.828;-2.298;2023-12-20T12:20:20;3.60;;;0.70;;
34896;SDS011;43407;51.828;-2.298;2023-12-20T12:22:45;0.70;;;0.47;;
34896;SDS011;43407;51.828;-2.298;2023-12-20T12:25:15;0.90;;;0.70;;
34896;SDS011;43407;51.828;-2.298;2023-12-20T12:27:41;1.25;;;0.60;;
34896;SDS011;43407;51.828;-2.298;2023-12-20T12:30:08;1.27;;;0.50;;
34896;SDS011;43407;51.828;-2.298;2023-12-20T12:32:35;1.20;;;0.50;;
34896;SDS011;43407;51.828;-2.298;2023-12-20T12:35:04;1.48;;;0.60;;
34896;SDS011;43407;51.828;-2.298;2023-12-20T12:37:34;1.38;;;0.60;;
34896;SDS011;43407;51.828;-2.298;2023-12-20T12:40:00;1.77;;;0.60;;
34896;SDS011;43407;51.828;-2.298;2023-12-20T12:42:25;1.63;;;0.50;;
34896;SDS011;43407;51.828;-2.298;2023-12-20T12:44:54;1.70;;;0.82;;
34896;SDS011;43407;51.828;-2.298;2023-12-20T12:47:20;2.42;;;0.73;;
34896;SDS011;43407;51.828;-2.298;2023-12-20T12:49:46;3.15;;;0.80;;
34896;SDS011;43407;51.828;-2.298;2023-12-20T12:52:11;2.65;;;0.70;;
34896;SDS011;43407;51.828;-2.298;2023-12-20T12:54:36;2.65;;;0.82;;
34896;SDS011;43407;51.828;-2.298;2023-12-20T12:57:02;3.17;;;0.70;;
34896;SDS011;43407;51.828;-2.298;2023-12-20T12:59:28;1.90;;;0.80;;
34896;SDS011;43407;51.828;-2.298;2023-12-20T13:01:53;1.90;;;0.70;;
34896;SDS011;43407;51.828;-2.298;2023-12-20T13:04:19;1.23;;;0.60;;
34896;SDS011;43407;51.828;-2.298;2023-12-20T13:06:44;2.08;;;1.10;;
34896;SDS011;43407;51.828;-2.298;2023-12-20T13:09:10;1.30;;;0.80;;
34896;SDS011;43407;51.828;-2.298;2023-12-20T13:11:35;2.75;;;0.80;;
34896;SDS011;43407;51.828;-2.298;2023-12-20T13:14:01;1.92;;;0.77;;
34896;SDS011;43407;51.828;-2.298;2023-12-20T13:16:28;3.88;;;1.25;;
34896;SDS011;43407;51.828;-2.298;2023-12-20T13:18:54;2.60;;;0.70;;
34896;SDS011;43407;51.828;-2.298;2023-12-20T13:21:19;1.58;;;0.80;;
34896;SDS011;43407;51.828;-2.298;2023-12-20T13:23:45;1.75;;;0.95;;
34896;SDS011;43407;51.828;-2.298;2023-12-20T13:26:10;3.40;;;0.95;;
34896;SDS011;43407;51.828;-2.298;2023-12-20T13:28:36;1.20;;;0.65;;
34896;SDS011;43407;51.828;-2.298;2023-12-20T13:31:01;1.95;;;0.70;;
34896;SDS011;43407;51.828;-2.298;2023-12-20T13:33:27;2.90;;;0.70;;
34896;SDS011;43407;51.828;-2.298;2023-12-20T13:35:53;1.77;;;0.80;;
34896;SDS011;43407;51.828;-2.298;2023-12-20T13:38:19;3.05;;;0.70;;
34896;SDS011;43407;51.828;-2.298;2023-12-20T13:40:44;2.70;;;1.17;;
34896;SDS011;43407;51.828;-2.298;2023-12-20T13:43:10;1.75;;;0.80;;
34896;SDS011;43407;51.828;-2.298;2023-12-20T13:45:38;4.72;;;1.00;;
34896;SDS011;43407;51.828;-2.298;2023-12-20T13:48:04;3.67;;;1.15;;
34896;SDS011;43407;51.828;-2.298;2023-12-20T13:50:30;3.25;;;1.00;;
34896;SDS011;43407;51.828;-2.298;2023-12-20T13:52:55;1.83;;;0.77;;
34896;SDS011;43407;51.828;-2.298;2023-12-20T13:55:21;1.77;;;0.90;;
34896;SDS011;43407;51.828;-2.298;2023-12-20T13:57:50;2.00;;;0.88;;
34896;SDS011;43407;51.828;-2.298;2023-12-20T14:00:16;2.22;;;0.57;;
34896;SDS011;43407;51.828;-2.298;2023-12-20T14:02:41;1.27;;;0.90;;
34896;SDS011;43407;51.828;-2.298;2023-12-20T14:05:08;2.00;;;0.57;;
34896;SDS011;43407;51.828;-2.298;2023-12-20T14:07:34;1.92;;;0.52;;
34896;SDS011;43407;51.828;-2.298;2023-12-20T14:09:59;1.33;;;0.90;;
34896;SDS011;43407;51.828;-2.298;2023-12-20T14:12:25;0.88;;;0.60;;
34896;SDS011;43407;51.828;-2.298;2023-12-20T14:14:50;1.02;;;0.52;;
34896;SDS011;43407;51.828;-2.298;2023-12-20T14:17:16;1.00;;;0.60;;
34896;SDS011;43407;51.828;-2.298;2023-12-20T14:19:43;1.35;;;0.60;;
34896;SDS011;43407;51.828;-2.298;2023-12-20T14:22:08;1.88;;;0.70;;
34896;SDS011;43407;51.828;-2.298;2023-12-20T14:24:34;0.63;;;0.55;;
34896;SDS011;43407;51.828;-2.298;2023-12-20T14:27:01;1.50;;;0.70;;
34896;SDS011;43407;51.828;-2.298;2023-12-20T14:29:26;0.80;;;0.50;;